Bonita Springs, FL (34135)

7:17 PM EDT on May 24, 2015 (GMT -0400)
Villages of Bonita | | Change Station
CLOSE
Current Station
Personal Weather Station
Location: Bonita Springs, FL
Elevation: 20 ft
Nearby Weather Stations

Elev 20 ft 26.37 °N, 81.79 °W | Updated 6 minutes ago

Mostly Cloudy
Mostly Cloudy
78.3 °F
Feels Like 81 °F
N
1.7
Wind Variable Wind from South

Today
High -- | Low -- °F
--% Chance of Precip.
Yesterday
High -- | Low -- °F
Precip. -- in
6:36 AM 8:11 PM
Waxing Crescent, 43% visible
Pressure 30.08 in
Visibility 10.0 miles
Clouds Scattered Clouds 5500 ft
Heat Index 81 °F
Dew Point 74 °F
Humidity 88%
Rainfall 0.20 in
Snow Depth Not available.
UV 1 out of 12
Pollen 4.40 out of 12
Air Quality Not available.
Flu Activity Sporadic
SPECI KRSW 242303Z 12008KT 10SM TS SCT055 31/19 A3008 RMK AO2 LTG DSNT NW TSB2257 T03060194

More Conditions Fewer Conditions

Pressure 30.08 in
Visibility 10.0 miles
Clouds Scattered Clouds 5500 ft
Heat Index 81 °F
Dew Point 74 °F
Humidity 88%
Rainfall 0.20 in
Snow Depth Not available.
UV 1 out of 12
Pollen 4.40 out of 12
Air Quality Not available.
Flu Activity Sporadic
SPECI KRSW 242303Z 12008KT 10SM TS SCT055 31/19 A3008 RMK AO2 LTG DSNT NW TSB2257 T03060194

More Conditions Fewer Conditions

10-Day Weather Forecast

Almanac

Astronomy

May. 24, 2015 Rise Set
Actual Time
Civil Twilight
Nautical Twilight
Astronomical Twilight
Moon
Length of Visible Light
Length of Day
Tomorrow will be .
, % of the Moon is Illuminated

Today's Extremes

State Highs State Lows

Community

WunderPhotos

Upload Photos

1,823,892 photos uploaded!

WunderBlogs® & News

Nearby

Air Quality

  Air Quality AQ Index Pollutant
Not available.

Snow Depth

Station Depth Elevation

Earthquake Activity

City Distance Mag. Time & Date
Minimum magnitude displayed is 2.5.

Coastal Water Temperatures

Place Temperature

Stations

Nearby Weather Stations

Station Location Temp. Windchill Dew Point Humidity Wind Precip. Elev Updated Type